Montevallo, AL (35115)

7:41 AM CDT on August 23, 2017 (GMT -0500)
Lhoist Montevallo | | Change Station

Elev 479 ft 33.09 °N, 86.81 °W | Updated 11 minutes ago

Clear
Clear
74.3 °F
Feels Like 72 °F
N
0.0
Wind Variable Wind from NW
Gusts 0.0 mph

Today
High -- | Low -- °F
--% Chance of Precip.
Yesterday
High -- | Low -- °F
Precip. -- in
Pressure 29.98 in
Visibility 3.0 miles
Clouds Few 1200 ft
Heat Index 72 °F
Dew Point 72 °F
Humidity 95%
Rainfall 0.00 in
Snow Depth Not available.
6:16 AM 7:23 PM
Waxing Crescent, 4% visible
METAR KEET 231153Z AUTO 00000KT 3SM BR FEW012 23/23 A3000 RMK AO2 SLP152 70083 T02330233 10250 20228 53004
Pressure 29.98 in
Visibility 3.0 miles
Clouds Few 1200 ft
Heat Index 72 °F
Dew Point 72 °F
Humidity 95%
Rainfall 0.00 in
Snow Depth Not available.
6:16 AM 7:23 PM
Waxing Crescent, 4% visible
METAR KEET 231153Z AUTO 00000KT 3SM BR FEW012 23/23 A3000 RMK AO2 SLP152 70083 T02330233 10250 20228 53004

Get Severe Weather Alerts

Thanks for signing up!

Be on the lookout for a verification email in your inbox.

You'll start receiving the daily forecast at 6 AM.

×

10-Day Weather Forecast

Almanac

Astronomy

Aug. 23, 2017 Rise Set
Actual Time
Civil Twilight
Nautical Twilight
Astronomical Twilight
Moon
Length of Visible Light
Length of Day
Tomorrow will be .
, % of the Moon is Illuminated

Today's Extremes

State Highs State Lows

Community

WunderPhotos

Category 6

Welcome to Category 6. This is the collective home for Weather Underground's featured writeups by Dr. Jeff Masters (right), Bob Henson (left), Chris Burt, and other regular contributors.

Nearby

Air Quality

  Air Quality AQ Index Pollutant
Not available.

Snow Depth

Station Depth Elevation

Earthquake Activity

City Distance Mag. Time & Date
Minimum magnitude displayed is 2.5.

Coastal Water Temperatures

Place Temperature

Stations

Nearby Weather Stations

Station Location Temp. Windchill Dew Point Humidity Wind Precip. Elev Updated Type
                   

Watches & Warnings

There are currently no watches in effect.